createdAt,value
2017-09-07T00:00:19.536Z,0
2017-09-07T00:01:19.610Z,0
2017-09-07T00:02:19.588Z,0
2017-09-07T00:03:19.614Z,0
2017-09-07T00:04:19.636Z,0
2017-09-07T00:05:19.653Z,0
2017-09-07T00:06:19.663Z,0
2017-09-07T00:07:20.012Z,0
2017-09-07T00:08:20.029Z,0
2017-09-07T00:09:19.754Z,0
2017-09-07T00:10:20.072Z,0
2017-09-07T00:11:19.786Z,0
2017-09-07T00:12:19.809Z,0
2017-09-07T00:13:19.854Z,0
2017-09-07T00:14:20.186Z,0
2017-09-07T00:15:19.884Z,0
2017-09-07T00:16:19.891Z,0
2017-09-07T00:17:19.910Z,0
2017-09-07T00:18:19.944Z,0
2017-09-07T00:19:19.964Z,0
2017-09-07T00:20:20.041Z,0
2017-09-07T00:21:20.002Z,0
2017-09-07T00:22:20.025Z,0
2017-09-07T00:23:20.054Z,0
2017-09-07T00:24:20.076Z,0
2017-09-07T00:25:20.103Z,0
2017-09-07T00:26:20.117Z,0
2017-09-07T00:27:20.139Z,0
2017-09-07T00:28:20.161Z,0
2017-09-07T00:29:20.188Z,0
2017-09-07T00:30:20.211Z,0
2017-09-07T00:31:20.231Z,0
2017-09-07T00:32:20.269Z,0
2017-09-07T00:33:20.272Z,0
2017-09-07T00:34:20.294Z,0
2017-09-07T00:35:20.383Z,0
2017-09-07T00:36:20.335Z,0
2017-09-07T00:37:20.358Z,0
2017-09-07T00:38:20.696Z,0
2017-09-07T00:39:20.717Z,0
2017-09-07T00:40:20.417Z,0
2017-09-07T00:41:20.450Z,0
2017-09-07T00:42:20.770Z,0
2017-09-07T00:43:20.492Z,0
2017-09-07T00:44:20.518Z,0
2017-09-07T00:45:20.537Z,0
2017-09-07T00:46:20.554Z,0
2017-09-07T00:47:20.576Z,0
2017-09-07T00:48:20.606Z,0
2017-09-07T00:49:20.634Z,0
2017-09-07T00:50:20.888Z,0
2017-09-07T00:51:20.675Z,0
2017-09-07T00:52:20.697Z,0
2017-09-07T00:53:20.731Z,0
2017-09-07T00:54:21.061Z,0
2017-09-07T00:55:20.768Z,0
2017-09-07T00:56:20.804Z,0
2017-09-07T00:57:20.808Z,0
2017-09-07T00:58:20.829Z,0
2017-09-07T00:59:20.862Z,0
2017-09-07T01:00:20.880Z,0
2017-09-07T01:01:20.915Z,0
2017-09-07T01:02:20.925Z,0
2017-09-07T01:03:20.939Z,0
2017-09-07T01:04:20.965Z,0
2017-09-07T01:05:20.982Z,0
2017-09-07T01:06:21.059Z,0
2017-09-07T01:07:21.030Z,0
2017-09-07T01:08:21.050Z,0
2017-09-07T01:09:21.084Z,0
2017-09-07T01:10:21.095Z,0
2017-09-07T01:11:21.165Z,0
2017-09-07T01:12:21.146Z,0
2017-09-07T01:13:21.174Z,0
2017-09-07T01:14:21.183Z,0
2017-09-07T01:15:21.214Z,0
2017-09-07T01:16:21.234Z,0
2017-09-07T01:17:21.253Z,0
2017-09-07T01:18:21.320Z,0
2017-09-07T01:19:21.316Z,0
2017-09-07T01:20:21.339Z,0
2017-09-07T01:21:21.339Z,0
2017-09-07T01:22:21.678Z,0
2017-09-07T01:23:21.705Z,0
2017-09-07T01:24:21.421Z,0
2017-09-07T01:25:21.434Z,0
2017-09-07T01:26:21.459Z,0
2017-09-07T01:27:21.476Z,0
2017-09-07T01:28:21.497Z,0
2017-09-07T01:29:21.519Z,0
2017-09-07T01:30:21.550Z,0
2017-09-07T01:31:21.564Z,0
2017-09-07T01:32:22.251Z,0
2017-09-07T01:33:21.923Z,0
2017-09-07T01:34:21.948Z,0
2017-09-07T01:35:21.651Z,0
2017-09-07T01:36:21.675Z,0
2017-09-07T01:37:21.742Z,0
2017-09-07T01:38:21.714Z,0
2017-09-07T01:39:21.739Z,0
2017-09-07T01:40:21.762Z,0
2017-09-07T01:41:21.787Z,0
2017-09-07T01:42:21.803Z,0
2017-09-07T01:43:21.841Z,0
2017-09-07T01:44:21.854Z,0
2017-09-07T01:45:21.879Z,0
2017-09-07T01:46:21.902Z,0
2017-09-07T01:47:21.922Z,0
2017-09-07T01:48:21.941Z,0
2017-09-07T01:49:21.985Z,0
2017-09-07T01:50:21.980Z,0
2017-09-07T01:51:22.006Z,0
2017-09-07T01:52:22.024Z,0
2017-09-07T01:53:22.045Z,0
2017-09-07T01:54:22.069Z,0
2017-09-07T01:55:22.141Z,0
2017-09-07T01:56:22.112Z,0
2017-09-07T01:57:22.149Z,0
2017-09-07T01:58:22.157Z,0
2017-09-07T01:59:22.193Z,0
2017-09-07T02:00:22.201Z,0
2017-09-07T02:01:22.540Z,0
2017-09-07T02:02:22.251Z,0
2017-09-07T02:03:22.276Z,0
2017-09-07T02:04:22.301Z,0
2017-09-07T02:05:22.630Z,0
2017-09-07T02:06:22.344Z,0
2017-09-07T02:07:22.355Z,0
2017-09-07T02:08:22.389Z,0
2017-09-07T02:09:22.404Z,0
2017-09-07T02:10:22.431Z,0
2017-09-07T02:11:22.453Z,0
2017-09-07T02:12:22.475Z,0
2017-09-07T02:13:22.497Z,0
2017-09-07T02:14:22.514Z,0
2017-09-07T02:15:22.533Z,0
2017-09-07T02:16:22.925Z,0
2017-09-07T02:17:22.918Z,0
2017-09-07T02:18:22.919Z,0
2017-09-07T02:19:22.645Z,0
2017-09-07T02:20:22.644Z,0
2017-09-07T02:21:22.999Z,0
2017-09-07T02:22:22.685Z,0
2017-09-07T02:23:23.048Z,0
2017-09-07T02:24:22.732Z,0
2017-09-07T02:25:23.076Z,0
2017-09-07T02:26:22.780Z,0
2017-09-07T02:27:22.851Z,0
2017-09-07T02:28:22.819Z,0
2017-09-07T02:29:22.847Z,0
2017-09-07T02:30:22.877Z,0
2017-09-07T02:31:22.888Z,0
2017-09-07T02:32:22.907Z,0
2017-09-07T02:33:22.930Z,0
2017-09-07T02:34:22.951Z,0
2017-09-07T02:35:22.989Z,0
2017-09-07T02:36:23.307Z,0
2017-09-07T02:37:23.017Z,0
2017-09-07T02:38:23.033Z,0
2017-09-07T02:39:23.064Z,0
2017-09-07T02:40:23.090Z,0
2017-09-07T02:41:23.417Z,0
2017-09-07T02:42:23.122Z,0
2017-09-07T02:43:23.462Z,0
2017-09-07T02:44:23.476Z,0
2017-09-07T02:45:23.500Z,0
2017-09-07T02:46:23.212Z,0
2017-09-07T02:47:23.234Z,0
2017-09-07T02:48:23.259Z,0
2017-09-07T02:49:23.596Z,0
2017-09-07T02:50:23.614Z,0
2017-09-07T02:51:23.634Z,0
2017-09-07T02:52:23.348Z,0
2017-09-07T02:53:23.683Z,0
2017-09-07T02:54:23.386Z,0
2017-09-07T02:55:23.409Z,0
2017-09-07T02:56:23.431Z,0
2017-09-07T02:57:23.756Z,0
2017-09-07T02:58:23.838Z,0
2017-09-07T02:59:23.490Z,0
2017-09-07T03:00:23.515Z,0
2017-09-07T03:01:23.549Z,0
2017-09-07T03:02:23.561Z,0
2017-09-07T03:03:23.594Z,0
2017-09-07T03:04:23.610Z,0
2017-09-07T03:05:23.939Z,0
2017-09-07T03:06:23.646Z,0
2017-09-07T03:07:23.988Z,0
2017-09-07T03:08:23.701Z,0
2017-09-07T03:09:23.712Z,0
2017-09-07T03:10:23.741Z,0
2017-09-07T03:11:23.759Z,0
2017-09-07T03:12:24.091Z,0
2017-09-07T03:13:23.850Z,0
2017-09-07T03:14:23.824Z,0
2017-09-07T03:15:24.146Z,0
2017-09-07T03:16:23.868Z,0
2017-09-07T03:17:24.202Z,0
2017-09-07T03:18:23.906Z,0
2017-09-07T03:19:24.241Z,0
2017-09-07T03:20:23.954Z,0
2017-09-07T03:21:23.988Z,0
2017-09-07T03:22:23.993Z,0
2017-09-07T03:23:24.017Z,0
2017-09-07T03:24:24.045Z,0
2017-09-07T03:25:24.054Z,0
2017-09-07T03:26:24.393Z,0
2017-09-07T03:27:24.409Z,0
2017-09-07T03:28:24.115Z,0
2017-09-07T03:29:24.142Z,0
2017-09-07T03:30:24.484Z,0
2017-09-07T03:31:24.238Z,0
2017-09-07T03:32:24.223Z,0
2017-09-07T03:33:24.226Z,0
2017-09-07T03:34:24.253Z,0
2017-09-07T03:35:24.270Z,0
2017-09-07T03:36:24.288Z,0
2017-09-07T03:37:24.312Z,0
2017-09-07T03:38:24.362Z,0
2017-09-07T03:39:24.354Z,0
2017-09-07T03:40:24.696Z,0
2017-09-07T03:41:24.395Z,0
2017-09-07T03:42:24.419Z,0
2017-09-07T03:43:24.445Z,0
2017-09-07T03:44:24.462Z,0
2017-09-07T03:45:24.480Z,0
2017-09-07T03:46:24.579Z,0
2017-09-07T03:47:24.532Z,0
2017-09-07T03:48:24.550Z,0
2017-09-07T03:49:24.566Z,0
2017-09-07T03:50:24.592Z,0
2017-09-07T03:51:24.604Z,0
2017-09-07T03:52:24.634Z,0
2017-09-07T03:53:24.656Z,0
2017-09-07T03:54:24.691Z,0
2017-09-07T03:55:24.707Z,0
2017-09-07T03:56:24.718Z,0
2017-09-07T03:57:24.741Z,0
2017-09-07T03:58:24.761Z,0
2017-09-07T03:59:24.791Z,0
2017-09-07T04:00:24.822Z,0
2017-09-07T04:01:24.830Z,0
2017-09-07T04:02:24.849Z,0
2017-09-07T04:03:24.876Z,0
2017-09-07T04:04:25.223Z,0
2017-09-07T04:05:24.915Z,0
2017-09-07T04:06:24.937Z,0
2017-09-07T04:07:24.967Z,0
2017-09-07T04:08:24.981Z,0
2017-09-07T04:09:25.010Z,0
2017-09-07T04:10:25.058Z,0
2017-09-07T04:11:25.036Z,0
2017-09-07T04:12:25.377Z,0
2017-09-07T04:13:25.081Z,0
2017-09-07T04:14:25.108Z,0
2017-09-07T04:15:25.122Z,0
2017-09-07T04:16:25.152Z,0
2017-09-07T04:17:25.219Z,0
2017-09-07T04:18:25.195Z,0
2017-09-07T04:19:25.532Z,4
2017-09-07T04:20:25.233Z,4
2017-09-07T04:21:25.574Z,4
2017-09-07T04:22:25.596Z,0
2017-09-07T04:23:25.318Z,0
2017-09-07T04:24:25.315Z,4
2017-09-07T04:25:25.344Z,8
2017-09-07T04:26:25.375Z,4
2017-09-07T04:27:25.385Z,8
2017-09-07T04:28:25.405Z,8
2017-09-07T04:29:25.424Z,8
2017-09-07T04:30:25.449Z,12
2017-09-07T04:31:25.476Z,12
2017-09-07T04:32:25.546Z,16
2017-09-07T04:33:25.507Z,16
2017-09-07T04:34:25.537Z,20
2017-09-07T04:35:25.555Z,24
2017-09-07T04:36:25.579Z,28
2017-09-07T04:37:25.595Z,28
2017-09-07T04:38:25.623Z,32
2017-09-07T04:39:25.644Z,36
2017-09-07T04:40:25.657Z,40
2017-09-07T04:41:25.691Z,44
2017-09-07T04:42:25.698Z,48
2017-09-07T04:43:25.719Z,56
2017-09-07T04:44:26.057Z,60
2017-09-07T04:45:25.780Z,64
2017-09-07T04:46:25.785Z,76
2017-09-07T04:47:25.818Z,84
2017-09-07T04:48:25.881Z,88
2017-09-07T04:49:25.880Z,92
2017-09-07T04:50:25.870Z,100
2017-09-07T04:51:25.896Z,108
2017-09-07T04:52:26.243Z,116
2017-09-07T04:53:26.322Z,128
2017-09-07T04:54:25.974Z,144
2017-09-07T04:55:26.301Z,156
2017-09-07T04:56:26.011Z,168
2017-09-07T04:57:26.032Z,184
2017-09-07T04:58:26.045Z,196
2017-09-07T04:59:26.377Z,204
2017-09-07T05:00:26.407Z,220
2017-09-07T05:01:26.107Z,232
2017-09-07T05:02:26.150Z,248
2017-09-07T05:03:26.465Z,264
2017-09-07T05:04:26.176Z,284
2017-09-07T05:05:26.197Z,304
2017-09-07T05:06:26.275Z,328
2017-09-07T05:07:26.239Z,348
2017-09-07T05:08:26.258Z,376
2017-09-07T05:09:26.279Z,404
2017-09-07T05:10:26.302Z,432
2017-09-07T05:11:26.331Z,464
2017-09-07T05:12:26.349Z,492
2017-09-07T05:13:26.367Z,524
2017-09-07T05:14:26.402Z,548
2017-09-07T05:15:26.413Z,564
2017-09-07T05:16:26.444Z,564
2017-09-07T05:17:26.457Z,556
2017-09-07T05:18:26.794Z,552
2017-09-07T05:19:26.494Z,548
2017-09-07T05:20:26.519Z,556
2017-09-07T05:21:26.534Z,584
2017-09-07T05:22:26.564Z,640
2017-09-07T05:23:26.591Z,708
2017-09-07T05:24:26.658Z,744
2017-09-07T05:25:26.941Z,704
2017-09-07T05:26:26.654Z,620
2017-09-07T05:27:26.660Z,536
2017-09-07T05:28:27.008Z,500
2017-09-07T05:29:26.714Z,524
2017-09-07T05:30:26.742Z,580
2017-09-07T05:31:26.753Z,656
2017-09-07T05:32:26.779Z,740
2017-09-07T05:33:27.108Z,796
2017-09-07T05:34:26.814Z,836
2017-09-07T05:35:27.155Z,868
2017-09-07T05:36:26.866Z,864
2017-09-07T05:37:26.880Z,848
2017-09-07T05:38:26.906Z,812
2017-09-07T05:39:26.935Z,784
2017-09-07T05:40:26.996Z,756
2017-09-07T05:41:26.988Z,700
2017-09-07T05:42:26.994Z,632
2017-09-07T05:43:27.329Z,624
2017-09-07T05:44:27.038Z,656
2017-09-07T05:45:27.056Z,692
2017-09-07T05:46:27.095Z,712
2017-09-07T05:47:27.115Z,728
2017-09-07T05:48:27.120Z,724
2017-09-07T05:49:27.147Z,704
2017-09-07T05:50:27.172Z,700
2017-09-07T05:51:27.189Z,716
2017-09-07T05:52:27.227Z,736
2017-09-07T05:53:27.229Z,736
2017-09-07T05:54:27.507Z,728
2017-09-07T05:55:27.331Z,728
2017-09-07T05:56:27.294Z,756
2017-09-07T05:57:27.316Z,804
2017-09-07T05:58:27.343Z,860
2017-09-07T05:59:27.351Z,908
2017-09-07T06:00:27.380Z,960
2017-09-07T06:01:27.393Z,1028
2017-09-07T06:02:27.428Z,1104
2017-09-07T06:03:27.443Z,1148
2017-09-07T06:04:27.470Z,1184
2017-09-07T06:05:27.483Z,1228
2017-09-07T06:06:27.504Z,1256
2017-09-07T06:07:27.528Z,1236
2017-09-07T06:08:27.557Z,1196
2017-09-07T06:09:27.581Z,1184
2017-09-07T06:10:27.586Z,1192
2017-09-07T06:11:27.615Z,1212
2017-09-07T06:12:27.941Z,1236
2017-09-07T06:13:27.656Z,1256
2017-09-07T06:14:27.668Z,1268
2017-09-07T06:15:27.696Z,1284
2017-09-07T06:16:27.713Z,1328
2017-09-07T06:17:28.049Z,1380
2017-09-07T06:18:27.757Z,1440
2017-09-07T06:19:27.781Z,1484
2017-09-07T06:20:27.799Z,1516
2017-09-07T06:21:28.127Z,1568
2017-09-07T06:22:27.834Z,1644
2017-09-07T06:23:28.175Z,1724
2017-09-07T06:24:27.884Z,1796
2017-09-07T06:25:28.587Z,1884
2017-09-07T06:26:27.945Z,2064
2017-09-07T06:27:28.313Z,2304
2017-09-07T06:28:28.017Z,2512
2017-09-07T06:29:27.985Z,2632
2017-09-07T06:30:28.005Z,2596
2017-09-07T06:31:28.033Z,2444
2017-09-07T06:32:28.053Z,2348
2017-09-07T06:33:28.075Z,2300
2017-09-07T06:34:28.088Z,2296
2017-09-07T06:35:28.108Z,2324
2017-09-07T06:36:28.132Z,2336
2017-09-07T06:37:28.155Z,2324
2017-09-07T06:38:28.484Z,2328
2017-09-07T06:39:28.203Z,2296
2017-09-07T06:40:28.571Z,2248
2017-09-07T06:41:28.245Z,2264
2017-09-07T06:42:28.278Z,2384
2017-09-07T06:43:28.276Z,2532
2017-09-07T06:44:28.304Z,2704
2017-09-07T06:45:28.689Z,2756
2017-09-07T06:46:28.346Z,2724
2017-09-07T06:47:28.367Z,2640
2017-09-07T06:48:28.698Z,2540
2017-09-07T06:49:28.410Z,2480
2017-09-07T06:50:28.427Z,2532
2017-09-07T06:51:28.448Z,2644
2017-09-07T06:52:28.468Z,2752
2017-09-07T06:53:28.491Z,2864
2017-09-07T06:54:28.514Z,2984
2017-09-07T06:55:28.535Z,3064
2017-09-07T06:56:28.860Z,3124
2017-09-07T06:57:28.895Z,3148
2017-09-07T06:58:28.596Z,3144
2017-09-07T06:59:28.619Z,3160
2017-09-07T07:00:28.641Z,3196
2017-09-07T07:01:28.660Z,3244
2017-09-07T07:02:28.682Z,3300
2017-09-07T07:03:28.702Z,3352
2017-09-07T07:04:28.736Z,3440
2017-09-07T07:05:28.751Z,3552
2017-09-07T07:06:28.768Z,3648
2017-09-07T07:07:29.104Z,3796
2017-09-07T07:08:28.810Z,3976
2017-09-07T07:09:28.828Z,4192
2017-09-07T07:10:28.866Z,4444
2017-09-07T07:11:29.177Z,4660
2017-09-07T07:12:28.902Z,4860
2017-09-07T07:13:28.915Z,5012
2017-09-07T07:14:28.940Z,5080
2017-09-07T07:15:28.957Z,5076
2017-09-07T07:16:28.985Z,5140
2017-09-07T07:17:28.996Z,5220
2017-09-07T07:18:29.026Z,5244
2017-09-07T07:19:29.350Z,5236
2017-09-07T07:20:29.109Z,5200
2017-09-07T07:21:29.087Z,5152
2017-09-07T07:22:29.432Z,5124
2017-09-07T07:23:29.132Z,5176
2017-09-07T07:24:29.156Z,5288
2017-09-07T07:25:29.176Z,5428
2017-09-07T07:26:29.201Z,5588
2017-09-07T07:27:29.231Z,5748
2017-09-07T07:28:29.236Z,5872
2017-09-07T07:29:29.259Z,6008
2017-09-07T07:30:29.289Z,6056
2017-09-07T07:31:29.307Z,6080
2017-09-07T07:32:29.319Z,6236
2017-09-07T07:33:29.345Z,6428
2017-09-07T07:34:29.377Z,6560
2017-09-07T07:35:29.397Z,6556
2017-09-07T07:36:29.570Z,6572
2017-09-07T07:37:29.443Z,6640
2017-09-07T07:38:29.455Z,6704
2017-09-07T07:39:29.786Z,6784
2017-09-07T07:40:29.502Z,6836
2017-09-07T07:41:29.833Z,6828
2017-09-07T07:42:29.541Z,6760
2017-09-07T07:43:29.579Z,6676
2017-09-07T07:44:29.910Z,6504
2017-09-07T07:45:29.619Z,6308
2017-09-07T07:46:29.647Z,6244
2017-09-07T07:47:29.661Z,6280
2017-09-07T07:48:30.001Z,6472
2017-09-07T07:49:29.717Z,6408
2017-09-07T07:50:29.746Z,6480
2017-09-07T07:51:29.755Z,6516
2017-09-07T07:52:29.776Z,6576
2017-09-07T07:53:30.116Z,6664
2017-09-07T07:54:29.811Z,6824
2017-09-07T07:55:30.158Z,6912
2017-09-07T07:56:30.196Z,7040
2017-09-07T07:57:29.879Z,7152
2017-09-07T07:58:30.220Z,7316
2017-09-07T07:59:29.931Z,7516
2017-09-07T08:00:29.959Z,7728
2017-09-07T08:01:29.971Z,7864
2017-09-07T08:02:29.992Z,7980
2017-09-07T08:03:30.330Z,8064
2017-09-07T08:04:30.045Z,8136
2017-09-07T08:05:30.066Z,8192
2017-09-07T08:06:30.090Z,8108
2017-09-07T08:07:30.103Z,8116
2017-09-07T08:08:30.133Z,8140
2017-09-07T08:09:30.154Z,8160
2017-09-07T08:10:30.189Z,8040
2017-09-07T08:11:30.242Z,7892
2017-09-07T08:12:30.234Z,7864
2017-09-07T08:13:30.249Z,7808
2017-09-07T08:14:30.265Z,7792
2017-09-07T08:15:30.286Z,7808
2017-09-07T08:16:30.315Z,7944
2017-09-07T08:17:30.649Z,8116
2017-09-07T08:18:30.374Z,8264
2017-09-07T08:19:30.381Z,8392
2017-09-07T08:20:30.422Z,8404
2017-09-07T08:21:30.422Z,8404
2017-09-07T08:22:30.448Z,8552
2017-09-07T08:23:30.472Z,8780
2017-09-07T08:24:30.822Z,8920
2017-09-07T08:25:30.519Z,9080
2017-09-07T08:26:30.540Z,9252
2017-09-07T08:27:30.618Z,9352
2017-09-07T08:28:30.594Z,9540
2017-09-07T08:29:30.924Z,9804
2017-09-07T08:30:30.648Z,10008
2017-09-07T08:31:30.660Z,10176
2017-09-07T08:32:30.682Z,10284
2017-09-07T08:33:31.018Z,10368
2017-09-07T08:34:30.736Z,10440
2017-09-07T08:35:31.076Z,10532
2017-09-07T08:36:30.780Z,10740
2017-09-07T08:37:30.797Z,10852
2017-09-07T08:38:30.816Z,10220
2017-09-07T08:39:30.843Z,9904
2017-09-07T08:40:31.175Z,9804
2017-09-07T08:41:31.210Z,10052
2017-09-07T08:42:30.963Z,9868
2017-09-07T08:43:30.936Z,9524
2017-09-07T08:44:30.962Z,9276
2017-09-07T08:45:30.986Z,9264
2017-09-07T08:46:31.010Z,9592
2017-09-07T08:47:31.030Z,9940
2017-09-07T08:48:31.062Z,10176
2017-09-07T08:49:31.083Z,10296
2017-09-07T08:50:31.105Z,10392
2017-09-07T08:51:31.437Z,10600
2017-09-07T08:52:31.208Z,10768
2017-09-07T08:53:31.178Z,11124
2017-09-07T08:54:31.200Z,11428
2017-09-07T08:55:31.223Z,11708
2017-09-07T08:56:31.249Z,11984
2017-09-07T08:57:31.345Z,12200
2017-09-07T08:58:31.302Z,12180
2017-09-07T08:59:31.320Z,12336
2017-09-07T09:00:31.437Z,11764
2017-09-07T09:01:31.365Z,11580
2017-09-07T09:02:31.388Z,11244
2017-09-07T09:03:31.720Z,11156
2017-09-07T09:04:31.433Z,11268
2017-09-07T09:05:31.771Z,11508
2017-09-07T09:06:31.476Z,11824
2017-09-07T09:07:31.503Z,11988
2017-09-07T09:08:31.543Z,13172
2017-09-07T09:09:31.546Z,11460
2017-09-07T09:10:31.578Z,11304
2017-09-07T09:11:31.594Z,11832
2017-09-07T09:12:31.772Z,12452
2017-09-07T09:13:31.956Z,12984
2017-09-07T09:14:31.676Z,13452
2017-09-07T09:15:31.707Z,14140
2017-09-07T09:16:31.737Z,14424
2017-09-07T09:17:31.797Z,15188
2017-09-07T09:18:31.766Z,15092
2017-09-07T09:19:31.789Z,17184
2017-09-07T09:20:31.821Z,15088
2017-09-07T09:21:31.853Z,19552
2017-09-07T09:22:31.968Z,20640
2017-09-07T09:23:31.901Z,17216
2017-09-07T09:24:32.232Z,22528
2017-09-07T09:25:32.256Z,16928
2017-09-07T09:26:31.963Z,16832
2017-09-07T09:27:31.991Z,14844
2017-09-07T09:28:32.014Z,14476
2017-09-07T09:29:32.044Z,14420
2017-09-07T09:30:32.078Z,14092
2017-09-07T09:31:32.094Z,13264
2017-09-07T09:32:32.121Z,12808
2017-09-07T09:33:32.146Z,12700
2017-09-07T09:34:32.223Z,13624
2017-09-07T09:35:32.502Z,14424
2017-09-07T09:36:32.532Z,14704
2017-09-07T09:37:32.261Z,15040
2017-09-07T09:38:32.294Z,15400
2017-09-07T09:39:32.295Z,15648
2017-09-07T09:40:32.330Z,15104
2017-09-07T09:41:32.368Z,16256
2017-09-07T09:42:32.374Z,15080
2017-09-07T09:43:32.396Z,15808
2017-09-07T09:44:32.432Z,15872
2017-09-07T09:45:32.474Z,16832
2017-09-07T09:46:32.485Z,17248
2017-09-07T09:47:32.515Z,15840
2017-09-07T09:48:32.844Z,16096
2017-09-07T09:49:32.769Z,15228
2017-09-07T09:50:32.658Z,15668
2017-09-07T09:51:32.607Z,17056
2017-09-07T09:52:32.637Z,17120
2017-09-07T09:53:32.658Z,16320
2017-09-07T09:54:32.685Z,16160
2017-09-07T09:55:32.718Z,16000
2017-09-07T09:56:32.744Z,16128
2017-09-07T09:57:32.760Z,15472
2017-09-07T09:58:32.793Z,16832
2017-09-07T09:59:32.816Z,17664
2017-09-07T10:00:32.938Z,16928
2017-09-07T10:01:32.870Z,19200
2017-09-07T10:02:32.902Z,18688
2017-09-07T10:03:32.923Z,18496
2017-09-07T10:04:32.951Z,19168
2017-09-07T10:05:32.980Z,19104
2017-09-07T10:06:33.002Z,20928
2017-09-07T10:07:33.076Z,21472
2017-09-07T10:08:33.053Z,23040
2017-09-07T10:09:33.091Z,19232
2017-09-07T10:10:33.107Z,18752
2017-09-07T10:11:33.451Z,18176
2017-09-07T10:12:33.168Z,19840
2017-09-07T10:13:33.496Z,21376
2017-09-07T10:14:33.210Z,22016
2017-09-07T10:15:33.240Z,28192
2017-09-07T10:16:33.270Z,28992
2017-09-07T10:17:33.293Z,21824
2017-09-07T10:18:33.322Z,21152
2017-09-07T10:19:33.345Z,22144
2017-09-07T10:20:33.372Z,21344
2017-09-07T10:21:33.406Z,21280
2017-09-07T10:22:33.435Z,22432
2017-09-07T10:23:33.767Z,24608
2017-09-07T10:24:33.481Z,23040
2017-09-07T10:25:33.577Z,25920
2017-09-07T10:26:33.530Z,24320
2017-09-07T10:27:33.880Z,27328
2017-09-07T10:28:33.740Z,22912
2017-09-07T10:29:33.624Z,21856
2017-09-07T10:30:33.958Z,25984
2017-09-07T10:31:33.671Z,27168
2017-09-07T10:32:33.798Z,24576
2017-09-07T10:33:33.727Z,23360
2017-09-07T10:34:34.084Z,26688
2017-09-07T10:35:33.781Z,26496
2017-09-07T10:36:33.806Z,25792
2017-09-07T10:37:33.833Z,29760
2017-09-07T10:38:33.862Z,26944
2017-09-07T10:39:33.891Z,20160
2017-09-07T10:40:34.583Z,20000
2017-09-07T10:41:33.952Z,22496
2017-09-07T10:42:34.292Z,25056
2017-09-07T10:43:34.009Z,19680
2017-09-07T10:44:34.035Z,20032
2017-09-07T10:45:34.055Z,30496
2017-09-07T10:46:34.408Z,21792
2017-09-07T10:47:34.122Z,29888
2017-09-07T10:48:34.147Z,40480
2017-09-07T10:49:34.172Z,25472
2017-09-07T10:50:34.203Z,54208
2017-09-07T10:51:34.226Z,35552
2017-09-07T10:52:34.254Z,29824
2017-09-07T10:53:34.291Z,16096
2017-09-07T10:54:34.311Z,15888
2017-09-07T10:55:34.344Z,17024
2017-09-07T10:56:34.377Z,25664
2017-09-07T10:57:34.401Z,24096
2017-09-07T10:58:34.428Z,35008
2017-09-07T10:59:34.521Z,40288
2017-09-07T11:00:34.499Z,40672
2017-09-07T11:01:34.595Z,17504
2017-09-07T11:02:34.905Z,16480
2017-09-07T11:03:35.345Z,17920
2017-09-07T11:04:35.274Z,38144
2017-09-07T11:05:35.063Z,37632
2017-09-07T11:06:35.775Z,39712
2017-09-07T11:07:35.113Z,41824
2017-09-07T11:08:35.139Z,39648
2017-09-07T11:09:35.101Z,32704
2017-09-07T11:10:35.470Z,32864
2017-09-07T11:11:35.131Z,39904
2017-09-07T11:12:35.188Z,38816
2017-09-07T11:13:35.345Z,48640
2017-09-07T11:14:35.259Z,33056
2017-09-07T11:15:35.275Z,31968
2017-09-07T11:16:35.330Z,19744
2017-09-07T11:17:35.346Z,19392
2017-09-07T11:18:35.692Z,20512
2017-09-07T11:19:35.445Z,15468
2017-09-07T11:20:35.949Z,15288
2017-09-07T11:21:35.523Z,15068
2017-09-07T11:22:35.958Z,15872
2017-09-07T11:23:35.491Z,42784
2017-09-07T11:24:35.592Z,45184
2017-09-07T11:25:35.710Z,47840
2017-09-07T11:26:35.578Z,41952
2017-09-07T11:27:35.688Z,40736
2017-09-07T11:28:36.054Z,47776
2017-09-07T11:29:35.700Z,46432
2017-09-07T11:30:35.895Z,47264
2017-09-07T11:31:36.138Z,52128
2017-09-07T11:32:35.807Z,51904
2017-09-07T11:33:35.899Z,55584
2017-09-07T11:34:35.914Z,15580
2017-09-07T11:35:36.656Z,37344
2017-09-07T11:36:35.975Z,56288
2017-09-07T11:37:36.273Z,59104
2017-09-07T11:38:36.062Z,35232
2017-09-07T11:39:36.045Z,54432
2017-09-07T11:40:36.073Z,53696
2017-09-07T11:41:36.458Z,54400
2017-09-07T11:42:36.862Z,54368
2017-09-07T11:43:36.510Z,51872
2017-09-07T11:44:36.118Z,45120
2017-09-07T11:45:36.231Z,43520
2017-09-07T11:46:36.212Z,18944
2017-09-07T11:47:36.333Z,28032
2017-09-07T11:48:36.273Z,17824
2017-09-07T11:49:36.411Z,37760
2017-09-07T11:50:36.758Z,19424
2017-09-07T11:51:36.408Z,41344
2017-09-07T11:52:36.783Z,32544
2017-09-07T11:53:36.119Z,40992
2017-09-07T11:54:36.136Z,50848
2017-09-07T11:55:36.179Z,53824
2017-09-07T11:56:36.205Z,31264
2017-09-07T11:57:36.256Z,46368
2017-09-07T11:58:36.577Z,46272
2017-09-07T11:59:36.303Z,52128
2017-09-07T12:00:36.658Z,60896
2017-09-07T12:01:36.378Z,64384
2017-09-07T12:02:36.404Z,67968
2017-09-07T12:03:36.747Z,70304
2017-09-07T12:04:36.463Z,69440
2017-09-07T12:05:36.499Z,62560
2017-09-07T12:06:36.528Z,50624
2017-09-07T12:07:36.561Z,47840
2017-09-07T12:08:36.652Z,55136
2017-09-07T12:09:36.624Z,64832
2017-09-07T12:10:36.658Z,37120
2017-09-07T12:11:36.720Z,50816
2017-09-07T12:12:37.351Z,65024
2017-09-07T12:13:36.768Z,64512
2017-09-07T12:14:36.799Z,70592
2017-09-07T12:15:36.825Z,73600
2017-09-07T12:16:36.877Z,70144
2017-09-07T12:17:36.900Z,69728
2017-09-07T12:18:37.138Z,70944
2017-09-07T12:19:36.984Z,63072
2017-09-07T12:20:36.997Z,73184
2017-09-07T12:21:37.356Z,76192
2017-09-07T12:22:37.076Z,22080
2017-09-07T12:23:37.152Z,30656
2017-09-07T12:24:37.134Z,26144
2017-09-07T12:25:37.175Z,82304
2017-09-07T12:26:37.212Z,77664
2017-09-07T12:27:37.240Z,53312
2017-09-07T12:28:37.369Z,78176
2017-09-07T12:29:37.306Z,18336
2017-09-07T12:30:37.350Z,11112
2017-09-07T12:31:37.390Z,10032
2017-09-07T12:32:37.414Z,9884
2017-09-07T12:33:37.760Z,9100
2017-09-07T12:34:37.807Z,8236
2017-09-07T12:35:37.516Z,7732
2017-09-07T12:36:37.544Z,7860
2017-09-07T12:37:37.892Z,6864
2017-09-07T12:38:37.619Z,5632
2017-09-07T12:39:37.690Z,4552
2017-09-07T12:40:37.674Z,3728
2017-09-07T12:41:37.704Z,3280
2017-09-07T12:42:38.050Z,3088
2017-09-07T12:43:37.767Z,3024
2017-09-07T12:44:37.796Z,3072
2017-09-07T12:45:37.826Z,3316
2017-09-07T12:46:37.862Z,3524
2017-09-07T12:47:37.891Z,3240
2017-09-07T12:48:37.922Z,3008
2017-09-07T12:49:37.954Z,3068
2017-09-07T12:50:37.972Z,3284
2017-09-07T12:51:38.012Z,3624
2017-09-07T12:52:38.193Z,4044
2017-09-07T12:53:38.100Z,4588
2017-09-07T12:54:38.146Z,5308
2017-09-07T12:55:38.129Z,6252
2017-09-07T12:56:38.151Z,7672
2017-09-07T12:57:38.179Z,9388
2017-09-07T12:58:38.207Z,10948
2017-09-07T12:59:38.243Z,12388
2017-09-07T13:00:38.265Z,13988
2017-09-07T13:01:38.288Z,16028
2017-09-07T13:02:38.321Z,17952
2017-09-07T13:03:38.365Z,21280
2017-09-07T13:04:38.371Z,34624
2017-09-07T13:05:38.723Z,26016
2017-09-07T13:06:38.439Z,21824
2017-09-07T13:07:38.462Z,23136
2017-09-07T13:08:38.482Z,23264
2017-09-07T13:09:38.512Z,25696
2017-09-07T13:10:38.602Z,30432
2017-09-07T13:11:38.562Z,56352
2017-09-07T13:12:38.588Z,37344
2017-09-07T13:13:38.619Z,60064
2017-09-07T13:14:38.654Z,35840
2017-09-07T13:15:38.673Z,53472
2017-09-07T13:16:38.704Z,49536
2017-09-07T13:17:38.758Z,44640
2017-09-07T13:18:39.082Z,30304
2017-09-07T13:19:38.802Z,87840
2017-09-07T13:20:38.817Z,91872
2017-09-07T13:21:38.848Z,30304
2017-09-07T13:22:38.877Z,69152
2017-09-07T13:23:38.903Z,79648
2017-09-07T13:24:38.945Z,63072
2017-09-07T13:25:38.983Z,81760
2017-09-07T13:26:39.165Z,84640
2017-09-07T13:27:39.027Z,79808
2017-09-07T13:28:39.064Z,59616
2017-09-07T13:29:39.191Z,85664
2017-09-07T13:30:39.129Z,79424
2017-09-07T13:31:39.159Z,80896
2017-09-07T13:32:39.192Z,82528
2017-09-07T13:33:39.218Z,84160
2017-09-07T13:34:39.249Z,87104
2017-09-07T13:35:39.281Z,34624
2017-09-07T13:36:39.332Z,77312
2017-09-07T13:37:39.342Z,62528
2017-09-07T13:38:39.700Z,13696
2017-09-07T13:39:39.421Z,10544